Time;durP1;ratioP1;P1;durP2;ratioP2;P2;SDS_P1;SDS_P2;PMS_P1;PMS_P2;Temp;Humidity;BMP_temperature;BMP_pressure;BME280_temperature;BME280_humidity;BME280_pressure;Samples;Min_cycle;Max_cycle;Signal;HPM_P1;HPM_P2
2023/03/22 00:01:23;;;;;;;5.80;3.50;;;10.00;97.30;;;;;;5065141;28;20802;-84
2023/03/22 00:03:50;;;;;;;4.90;3.80;;;10.00;97.30;;;;;;5059894;28;20458;-85
2023/03/22 00:06:16;;;;;;;2.50;1.93;;;10.10;97.30;;;;;;5066479;28;20890;-85
2023/03/22 00:08:43;;;;;;;4.33;2.23;;;10.10;97.30;;;;;;5057905;28;20516;-82
2023/03/22 00:11:10;;;;;;;5.60;3.60;;;10.00;97.30;;;;;;5068312;28;20410;-84
2023/03/22 00:13:36;;;;;;;3.57;2.43;;;10.00;97.30;;;;;;5062675;28;20539;-84
2023/03/22 00:16:04;;;;;;;3.63;2.57;;;9.80;97.30;;;;;;5071608;28;20939;-84
2023/03/22 00:18:30;;;;;;;4.00;2.67;;;9.70;97.30;;;;;;5058063;28;20203;-82
2023/03/22 00:20:57;;;;;;;2.60;2.03;;;9.70;97.30;;;;;;5064297;28;20422;-84
2023/03/22 00:23:24;;;;;;;3.17;2.93;;;9.70;97.30;;;;;;5081774;28;20458;-84
2023/03/22 00:25:50;;;;;;;1.83;1.73;;;9.60;97.30;;;;;;5064272;28;20410;-85
2023/03/22 00:28:16;;;;;;;3.30;3.10;;;9.60;97.30;;;;;;5063388;28;20441;-84
2023/03/22 00:30:49;;;;;;;2.67;2.10;;;9.60;97.30;;;;;;5062145;28;20176;-85
2023/03/22 00:33:15;;;;;;;7.77;3.50;;;9.60;97.30;;;;;;5066394;28;21069;-84
2023/03/22 00:35:47;;;;;;;2.43;2.23;;;9.60;97.30;;;;;;5050336;28;20525;-84
2023/03/22 00:38:13;;;;;;;10.03;4.57;;;9.60;97.30;;;;;;5062751;28;20227;-85
2023/03/22 00:40:38;;;;;;;1.70;1.63;;;9.60;97.30;;;;;;5066144;28;20430;-84
2023/03/22 00:43:04;;;;;;;8.07;2.60;;;9.60;97.30;;;;;;5068433;28;20206;-83
2023/03/22 00:45:29;;;;;;;6.53;3.30;;;9.60;97.30;;;;;;5071558;28;20233;-85
2023/03/22 00:47:55;;;;;;;2.80;2.53;;;9.60;97.30;;;;;;5059270;28;20233;-84
2023/03/22 00:50:21;;;;;;;27.50;2.33;;;9.50;97.30;;;;;;5062802;28;20205;-84
2023/03/22 00:52:46;;;;;;;3.20;2.47;;;9.50;97.30;;;;;;5069408;28;20266;-84
2023/03/22 00:55:12;;;;;;;2.33;2.13;;;9.50;97.30;;;;;;5061715;28;20230;-84
2023/03/22 00:57:37;;;;;;;2.80;2.30;;;9.50;97.30;;;;;;5060523;28;20440;-84
2023/03/22 01:00:22;;;;;;;3.93;2.50;;;9.50;97.30;;;;;;5062284;28;20192;-84
2023/03/22 01:02:48;;;;;;;5.27;2.87;;;9.40;97.30;;;;;;5053170;28;20219;-84
2023/03/22 01:05:14;;;;;;;3.63;3.00;;;9.40;97.30;;;;;;5056737;28;20930;-84
2023/03/22 01:07:41;;;;;;;1.70;1.67;;;9.40;97.30;;;;;;5063885;28;20241;-85
2023/03/22 01:10:07;;;;;;;3.17;2.30;;;9.40;97.30;;;;;;5058169;28;20564;-84
2023/03/22 01:12:32;;;;;;;2.20;1.83;;;9.40;97.30;;;;;;5063001;28;20806;-84
2023/03/22 01:14:58;;;;;;;4.10;2.07;;;9.30;97.30;;;;;;5069489;28;20846;-84
2023/03/22 01:17:23;;;;;;;1.73;1.63;;;9.30;97.30;;;;;;5064116;28;20176;-84
2023/03/22 01:19:49;;;;;;;5.17;3.23;;;9.30;97.30;;;;;;5062476;28;20222;-84
2023/03/22 01:22:15;;;;;;;2.17;1.70;;;9.30;97.30;;;;;;5064512;28;20176;-84
2023/03/22 01:24:40;;;;;;;5.20;3.57;;;9.20;97.30;;;;;;5051735;28;20182;-84
2023/03/22 01:27:06;;;;;;;1.90;1.83;;;9.20;97.30;;;;;;5063309;28;20212;-84
2023/03/22 01:29:31;;;;;;;1.77;1.67;;;9.20;97.30;;;;;;5055103;28;20677;-84
2023/03/22 01:31:57;;;;;;;4.50;2.17;;;9.20;97.30;;;;;;5064196;28;20545;-85
2023/03/22 01:34:22;;;;;;;1.40;1.37;;;9.20;97.30;;;;;;5066559;28;20236;-84
2023/03/22 01:36:49;;;;;;;1.93;1.83;;;9.20;97.30;;;;;;5056250;28;20290;-83
2023/03/22 01:39:15;;;;;;;2.40;1.93;;;9.20;97.30;;;;;;5063223;28;20623;-84
2023/03/22 01:41:41;;;;;;;3.95;2.15;;;9.20;97.30;;;;;;5062901;28;20982;-85
2023/03/22 01:44:12;;;;;;;2.47;2.30;;;9.20;97.30;;;;;;5061265;28;20321;-85
2023/03/22 01:46:39;;;;;;;1.40;1.27;;;9.20;97.30;;;;;;5062795;28;20228;-85
2023/03/22 01:49:10;;;;;;;2.43;2.23;;;9.20;97.30;;;;;;5056087;28;20442;-85
2023/03/22 01:51:37;;;;;;;5.80;4.00;;;9.20;97.30;;;;;;5057946;28;20950;-85
2023/03/22 01:54:07;;;;;;;2.20;2.00;;;9.20;97.30;;;;;;5059476;28;20915;-85
2023/03/22 01:56:36;;;;;;;3.03;1.97;;;9.20;97.30;;;;;;5061461;28;20931;-80
2023/03/22 01:59:02;;;;;;;6.03;2.47;;;9.20;97.30;;;;;;5066938;28;20441;-84
2023/03/22 02:01:28;;;;;;;1.57;1.40;;;9.20;97.30;;;;;;5068553;28;20421;-85
2023/03/22 02:04:03;;;;;;;5.73;2.93;;;9.10;97.30;;;;;;5086205;28;20519;-84
2023/03/22 02:06:31;;;;;;;2.63;2.43;;;9.10;97.30;;;;;;5062373;28;20503;-85
2023/03/22 02:08:57;;;;;;;1.57;1.50;;;9.10;97.30;;;;;;5061661;28;20446;-85
2023/03/22 02:11:33;;;;;;;1.83;1.73;;;9.00;97.30;;;;;;5059774;28;20418;-85
2023/03/22 02:14:17;;;;;;;1.80;1.70;;;9.00;97.30;;;;;;5062066;28;20474;-86
2023/03/22 02:17:18;;;;;;;4.80;2.53;;;9.00;97.30;;;;;;5080484;28;20433;-85
2023/03/22 02:20:30;;;;;;;1.67;1.60;;;8.90;97.30;;;;;;5062320;28;20426;-85
2023/03/22 02:23:12;;;;;;;1.27;1.17;;;8.90;97.30;;;;;;5062844;28;20457;-84
2023/03/22 02:25:55;;;;;;;1.83;1.10;;;8.90;97.30;;;;;;5064273;28;20417;-84
2023/03/22 02:28:48;;;;;;;1.80;1.80;;;8.90;97.30;;;;;;5067020;28;20505;-85
2023/03/22 02:31:33;;;;;;;2.60;2.07;;;8.90;97.30;;;;;;5059490;28;20450;-84
2023/03/22 02:34:31;;;;;;;2.90;2.50;;;8.90;97.30;;;;;;5066136;28;20413;-84
2023/03/22 02:37:12;;;;;;;3.27;2.80;;;8.90;97.30;;;;;;5054104;28;20972;-84
2023/03/22 02:39:38;;;;;;;18.13;2.40;;;8.90;97.30;;;;;;5059736;28;20454;-84
2023/03/22 02:42:42;;;;;;;1.70;1.60;;;8.90;97.30;;;;;;5067067;28;20471;-85
2023/03/22 02:45:17;;;;;;;1.70;1.40;;;8.90;97.30;;;;;;5034436;28;20569;-84
2023/03/22 02:47:57;;;;;;;2.13;1.97;;;8.90;97.30;;;;;;5082759;28;21013;-84
2023/03/22 02:50:28;;;;;;;3.13;2.93;;;8.90;97.30;;;;;;5066026;28;20417;-84
2023/03/22 02:53:05;;;;;;;1.10;1.00;;;9.00;97.30;;;;;;5063949;28;20446;-85
2023/03/22 02:55:47;;;;;;;1.87;1.73;;;9.00;97.30;;;;;;5064912;28;20491;-85
2023/03/22 02:58:20;;;;;;;2.10;1.83;;;9.00;97.30;;;;;;5084222;28;20433;-84
2023/03/22 03:00:49;;;;;;;1.70;1.60;;;9.00;97.30;;;;;;5089863;28;20493;-85
2023/03/22 03:03:18;;;;;;;2.50;1.50;;;9.00;97.30;;;;;;5064300;28;20450;-85
2023/03/22 03:05:48;;;;;;;2.30;2.10;;;9.00;97.30;;;;;;5060697;28;20795;-85
2023/03/22 03:08:16;;;;;;;2.83;2.63;;;9.00;97.30;;;;;;5066989;28;20441;-84
2023/03/22 03:10:43;;;;;;;1.57;1.47;;;9.00;97.30;;;;;;5071469;28;20847;-84
2023/03/22 03:13:12;;;;;;;4.73;2.50;;;9.00;97.30;;;;;;5056290;28;20462;-84
2023/03/22 03:15:41;;;;;;;3.47;2.13;;;9.00;97.30;;;;;;5058748;28;20816;-85
2023/03/22 03:18:34;;;;;;;6.13;3.63;;;9.10;97.30;;;;;;5061069;28;20500;-85
2023/03/22 03:21:23;;;;;;;2.33;2.13;;;9.00;97.30;;;;;;5065139;28;20526;-85
2023/03/22 03:24:12;;;;;;;2.63;2.43;;;9.10;97.30;;;;;;5065078;28;20516;-82
2023/03/22 03:27:01;;;;;;;1.90;1.50;;;9.10;97.30;;;;;;5058721;28;20414;-84
2023/03/22 03:29:49;;;;;;;10.53;2.50;;;9.10;97.30;;;;;;5086591;28;20446;-84
2023/03/22 03:32:34;;;;;;;1.63;1.53;;;9.10;97.30;;;;;;5066699;28;20425;-85
2023/03/22 03:35:09;;;;;;;2.63;2.43;;;9.10;97.30;;;;;;5088637;28;20414;-85
2023/03/22 03:37:45;;;;;;;2.53;2.33;;;9.10;97.30;;;;;;5064950;28;21017;-84
2023/03/22 03:40:20;;;;;;;2.23;1.70;;;9.10;97.30;;;;;;5053245;28;20505;-85
2023/03/22 03:42:52;;;;;;;1.70;1.63;;;9.10;97.30;;;;;;5067551;28;20466;-84
2023/03/22 03:45:21;;;;;;;2.30;1.93;;;9.10;97.30;;;;;;5061232;28;21082;-83
2023/03/22 03:47:55;;;;;;;3.13;2.70;;;9.10;97.30;;;;;;5078960;28;20452;-82
2023/03/22 03:50:22;;;;;;;2.80;2.23;;;9.10;97.30;;;;;;5073092;28;20418;-85
2023/03/22 03:52:48;;;;;;;1.13;1.03;;;9.10;97.30;;;;;;5082176;28;20418;-84
2023/03/22 03:55:14;;;;;;;2.50;1.30;;;9.10;97.30;;;;;;5067981;28;21108;-85
2023/03/22 03:57:39;;;;;;;1.97;1.37;;;9.10;97.30;;;;;;5056348;28;20307;-84
2023/03/22 04:00:06;;;;;;;9.57;3.27;;;9.10;97.30;;;;;;5063479;28;20440;-85
2023/03/22 04:02:31;;;;;;;2.33;1.93;;;9.00;97.30;;;;;;5060963;28;22064;-85
2023/03/22 04:04:57;;;;;;;3.07;2.50;;;9.00;97.30;;;;;;5071164;28;20455;-85
2023/03/22 04:07:23;;;;;;;1.50;1.40;;;9.00;97.30;;;;;;5057024;28;20535;-82
2023/03/22 04:09:52;;;;;;;1.60;1.50;;;9.00;97.30;;;;;;5070007;28;20240;-82
2023/03/22 04:12:17;;;;;;;9.53;1.90;;;9.10;97.30;;;;;;5075103;28;20436;-84
2023/03/22 04:14:43;;;;;;;2.33;1.47;;;9.10;97.30;;;;;;5067462;28;20421;-80
2023/03/22 04:17:09;;;;;;;20.37;3.50;;;9.10;97.30;;;;;;5074063;28;20194;-79
2023/03/22 04:19:35;;;;;;;23.07;3.40;;;9.10;97.30;;;;;;5072288;28;20959;-79
2023/03/22 04:22:02;;;;;;;4.30;2.70;;;9.10;97.30;;;;;;5075402;28;20262;-81
2023/03/22 04:24:27;;;;;;;1.83;1.73;;;9.10;97.30;;;;;;5074396;28;20244;-79
2023/03/22 04:26:53;;;;;;;1.60;1.50;;;9.10;97.30;;;;;;5066251;28;20414;-80
2023/03/22 04:29:21;;;;;;;2.83;2.63;;;9.10;97.30;;;;;;5069958;28;20210;-80
2023/03/22 04:31:47;;;;;;;1.87;1.77;;;9.10;97.30;;;;;;5068673;28;20194;-82
2023/03/22 04:34:12;;;;;;;2.83;2.63;;;9.10;97.30;;;;;;5097627;28;20932;-79
2023/03/22 04:36:38;;;;;;;1.83;1.73;;;9.10;97.30;;;;;;5072841;28;20206;-80
2023/03/22 04:39:06;;;;;;;1.53;1.43;;;9.10;97.30;;;;;;5067484;28;20246;-84
2023/03/22 04:41:35;;;;;;;2.23;2.03;;;9.10;97.30;;;;;;5064597;28;20187;-83
2023/03/22 04:44:02;;;;;;;1.40;1.30;;;9.10;97.30;;;;;;5071180;28;20454;-80
2023/03/22 04:46:34;;;;;;;1.43;1.33;;;9.10;97.30;;;;;;5068457;28;20418;-80
2023/03/22 04:49:00;;;;;;;2.93;2.80;;;9.00;97.30;;;;;;5066172;28;20458;-83
2023/03/22 04:51:27;;;;;;;3.23;1.40;;;9.00;97.30;;;;;;5066135;28;20414;-82
2023/03/22 04:53:53;;;;;;;1.67;1.57;;;9.00;97.30;;;;;;5066451;28;20184;-80
2023/03/22 04:56:19;;;;;;;7.17;3.97;;;8.90;97.30;;;;;;5073770;28;20418;-80
2023/03/22 04:58:45;;;;;;;1.63;1.53;;;8.90;97.30;;;;;;5068272;28;20434;-81
2023/03/22 05:01:13;;;;;;;2.50;1.23;;;8.80;97.30;;;;;;5061524;28;20438;-80
2023/03/22 05:03:40;;;;;;;9.20;2.30;;;8.80;97.30;;;;;;5076790;28;20464;-82
2023/03/22 05:06:08;;;;;;;4.03;3.90;;;8.80;97.30;;;;;;5078326;28;20421;-79
2023/03/22 05:08:34;;;;;;;2.77;2.53;;;8.70;97.30;;;;;;5071477;28;20517;-80
2023/03/22 05:11:12;;;;;;;1.30;1.20;;;8.70;97.30;;;;;;5064534;28;20414;-83
2023/03/22 05:13:41;;;;;;;2.40;1.37;;;8.70;97.30;;;;;;5068490;28;20422;-84
2023/03/22 05:16:09;;;;;;;2.40;1.83;;;8.70;97.30;;;;;;5048958;28;20416;-82
2023/03/22 05:18:41;;;;;;;2.30;1.67;;;8.60;97.30;;;;;;5057169;28;20495;-83
2023/03/22 05:21:14;;;;;;;2.07;1.93;;;8.60;97.30;;;;;;5047403;28;20417;-82
2023/03/22 05:23:43;;;;;;;2.70;2.60;;;8.60;97.30;;;;;;5053387;28;20454;-81
2023/03/22 05:26:14;;;;;;;10.63;2.60;;;8.60;97.30;;;;;;5060992;28;20486;-82
2023/03/22 05:28:41;;;;;;;2.30;2.10;;;8.60;97.30;;;;;;5073861;28;20433;-84
2023/03/22 05:31:13;;;;;;;1.60;1.50;;;8.60;97.30;;;;;;5071616;28;20406;-82
2023/03/22 05:33:41;;;;;;;5.33;2.10;;;8.50;97.30;;;;;;5069286;28;20430;-82
2023/03/22 05:36:07;;;;;;;2.10;1.53;;;8.50;97.30;;;;;;5064696;28;20424;-83
2023/03/22 05:38:33;;;;;;;1.93;1.83;;;8.50;97.30;;;;;;5072760;28;20558;-81
2023/03/22 05:40:59;;;;;;;2.60;2.40;;;8.50;97.30;;;;;;5066893;28;20829;-82
2023/03/22 05:43:24;;;;;;;5.83;4.10;;;8.50;97.30;;;;;;5069307;28;20219;-80
2023/03/22 05:45:50;;;;;;;3.37;3.17;;;8.50;97.30;;;;;;5051038;28;20171;-81
2023/03/22 05:48:16;;;;;;;2.20;1.83;;;8.60;97.30;;;;;;5053777;28;20194;-79
2023/03/22 05:50:41;;;;;;;4.00;2.73;;;8.60;97.30;;;;;;5052568;28;20184;-83
2023/03/22 05:53:07;;;;;;;6.73;2.40;;;8.60;97.30;;;;;;5055346;28;20278;-84
2023/03/22 05:55:33;;;;;;;2.30;2.10;;;8.60;97.30;;;;;;5055519;28;20274;-83
2023/03/22 05:58:04;;;;;;;3.03;2.83;;;8.70;97.30;;;;;;5057785;28;20195;-81
2023/03/22 06:00:34;;;;;;;3.67;3.43;;;8.70;97.30;;;;;;5054556;28;20184;-83
2023/03/22 06:03:04;;;;;;;4.03;2.93;;;8.70;97.30;;;;;;5052288;28;20461;-83
2023/03/22 06:05:31;;;;;;;6.37;3.97;;;8.80;97.30;;;;;;5052169;28;20940;-82
2023/03/22 06:07:58;;;;;;;2.50;2.30;;;8.80;97.30;;;;;;5071633;28;20529;-84
2023/03/22 06:10:25;;;;;;;4.23;2.60;;;8.80;97.30;;;;;;5071574;28;20415;-83
2023/03/22 06:12:51;;;;;;;2.57;2.37;;;8.80;97.30;;;;;;5064970;28;20429;-81
2023/03/22 06:15:17;;;;;;;3.00;2.47;;;8.80;97.30;;;;;;5071286;28;20425;-82
2023/03/22 06:17:43;;;;;;;4.53;3.33;;;8.90;97.30;;;;;;5073606;28;20448;-80
2023/03/22 06:20:11;;;;;;;3.60;3.40;;;8.90;97.30;;;;;;5061339;28;20183;-79
2023/03/22 06:22:37;;;;;;;4.43;2.20;;;8.90;97.30;;;;;;5068421;28;20214;-80
2023/03/22 06:25:05;;;;;;;3.60;1.90;;;9.00;97.30;;;;;;5057107;28;20505;-80
2023/03/22 06:27:31;;;;;;;4.80;2.90;;;9.00;97.30;;;;;;5066705;28;20418;-83
2023/03/22 06:29:57;;;;;;;3.20;1.80;;;9.10;97.30;;;;;;5066790;28;20425;-81
2023/03/22 06:32:22;;;;;;;1.77;1.67;;;9.10;97.30;;;;;;5062190;28;20458;-81
2023/03/22 06:34:49;;;;;;;7.20;2.77;;;9.10;97.30;;;;;;5058782;28;20176;-79
2023/03/22 06:37:15;;;;;;;8.70;3.60;;;9.10;97.30;;;;;;5067497;28;20179;-79
2023/03/22 06:39:41;;;;;;;4.67;4.20;;;9.10;97.30;;;;;;5070441;28;20409;-80
2023/03/22 06:42:07;;;;;;;1.60;1.50;;;9.20;97.30;;;;;;5070552;28;20201;-81
2023/03/22 06:44:33;;;;;;;4.60;3.47;;;9.20;97.30;;;;;;5072584;28;20472;-80
2023/03/22 06:47:01;;;;;;;4.90;2.97;;;9.20;97.30;;;;;;5062246;28;20175;-79
2023/03/22 06:49:34;;;;;;;4.57;4.00;;;9.30;97.30;;;;;;5075626;28;20469;-79
2023/03/22 06:52:03;;;;;;;4.20;3.27;;;9.30;97.30;;;;;;5073308;28;20437;-81
2023/03/22 06:54:28;;;;;;;4.13;3.90;;;9.40;97.30;;;;;;5068677;28;20489;-80
2023/03/22 06:56:54;;;;;;;3.10;2.90;;;9.40;97.30;;;;;;5074600;28;20456;-82
2023/03/22 06:59:20;;;;;;;4.47;2.83;;;9.50;97.30;;;;;;5068378;28;20206;-81
2023/03/22 07:01:45;;;;;;;3.00;2.80;;;9.50;97.30;;;;;;5072074;28;20375;-80
2023/03/22 07:04:11;;;;;;;5.80;4.93;;;9.60;97.30;;;;;;5066675;28;20226;-81
2023/03/22 07:06:36;;;;;;;4.23;2.80;;;9.70;97.30;;;;;;5076410;28;20171;-82
2023/03/22 07:09:02;;;;;;;2.87;2.67;;;9.70;97.30;;;;;;5079508;28;20666;-80
2023/03/22 07:11:27;;;;;;;2.40;1.67;;;9.80;97.30;;;;;;5066019;28;20188;-79
2023/03/22 07:13:54;;;;;;;2.50;2.30;;;9.90;97.30;;;;;;5070432;28;20187;-82
2023/03/22 07:16:20;;;;;;;3.63;3.43;;;9.90;97.30;;;;;;5064773;28;20194;-84
2023/03/22 07:18:47;;;;;;;6.33;2.60;;;10.00;97.30;;;;;;5079014;28;20437;-82
2023/03/22 07:21:13;;;;;;;3.13;2.50;;;10.00;97.30;;;;;;5081151;28;20731;-81
2023/03/22 07:23:40;;;;;;;6.97;2.13;;;10.00;97.30;;;;;;5073780;28;20461;-81
2023/03/22 07:26:06;;;;;;;2.77;1.90;;;10.10;97.30;;;;;;5057806;28;20504;-80
2023/03/22 07:28:32;;;;;;;2.27;2.07;;;10.10;97.30;;;;;;5057619;28;20442;-81
2023/03/22 07:31:06;;;;;;;2.50;2.30;;;10.10;97.30;;;;;;5058869;28;20202;-81
2023/03/22 07:33:32;;;;;;;3.57;3.37;;;10.20;97.30;;;;;;5056637;28;20513;-82
2023/03/22 07:35:57;;;;;;;2.37;2.23;;;10.30;97.30;;;;;;5065788;28;20468;-81
2023/03/22 07:38:23;;;;;;;4.00;2.53;;;10.40;97.30;;;;;;5071785;28;20682;-82
2023/03/22 07:40:53;;;;;;;7.17;4.27;;;10.50;97.30;;;;;;5077241;28;20187;-84
2023/03/22 07:43:20;;;;;;;4.50;1.97;;;10.60;97.30;;;;;;5077049;28;20211;-82
2023/03/22 07:45:47;;;;;;;5.80;3.73;;;10.70;97.30;;;;;;5064674;28;20413;-82
2023/03/22 07:48:12;;;;;;;3.93;3.70;;;10.90;97.30;;;;;;5071416;28;20438;-83
2023/03/22 07:50:38;;;;;;;2.67;1.93;;;11.00;97.30;;;;;;5061262;28;20823;-84
2023/03/22 07:53:04;;;;;;;2.50;2.30;;;11.10;97.30;;;;;;5063341;28;20188;-84
2023/03/22 07:55:29;;;;;;;4.90;3.53;;;11.10;97.30;;;;;;5065779;28;20189;-79
2023/03/22 07:57:55;;;;;;;3.67;2.57;;;11.10;97.30;;;;;;5073531;28;20614;-84
2023/03/22 08:00:21;;;;;;;2.70;2.03;;;11.20;97.30;;;;;;5077324;28;20184;-84
2023/03/22 08:02:46;;;;;;;6.23;3.07;;;11.10;97.30;;;;;;5065736;28;20199;-79
2023/03/22 08:05:12;;;;;;;1.70;1.60;;;11.20;97.30;;;;;;5077009;28;20423;-83
2023/03/22 08:07:38;;;;;;;2.27;2.07;;;11.20;97.30;;;;;;5062578;28;20654;-82
2023/03/22 08:10:04;;;;;;;6.50;3.97;;;11.30;97.30;;;;;;5065394;28;20332;-79
2023/03/22 08:12:31;;;;;;;4.20;2.37;;;11.40;97.30;;;;;;5072184;28;20183;-82
2023/03/22 08:14:56;;;;;;;2.50;1.97;;;11.60;97.30;;;;;;5071165;28;20417;-84
2023/03/22 08:17:22;;;;;;;5.80;2.93;;;11.80;97.30;;;;;;5066390;28;20411;-82
2023/03/22 08:19:48;;;;;;;5.43;2.47;;;12.00;97.30;;;;;;5071978;28;20195;-84
2023/03/22 08:22:14;;;;;;;2.80;1.73;;;11.90;97.30;;;;;;5053452;28;20244;-85
2023/03/22 08:24:40;;;;;;;2.23;2.03;;;12.00;97.30;;;;;;5059799;28;20563;-79
2023/03/22 08:27:05;;;;;;;3.20;2.40;;;12.10;97.30;;;;;;5078230;28;20182;-85
2023/03/22 08:29:31;;;;;;;6.17;2.53;;;12.30;97.30;;;;;;5064511;28;20195;-79
2023/03/22 08:32:00;;;;;;;5.43;3.40;;;12.50;97.30;;;;;;5063774;28;20183;-84
2023/03/22 08:34:30;;;;;;;9.03;3.53;;;12.70;97.30;;;;;;5075472;28;20237;-83
2023/03/22 08:36:55;;;;;;;5.47;1.97;;;12.80;97.30;;;;;;5076532;28;20461;-79
2023/03/22 08:39:22;;;;;;;3.80;2.67;;;12.90;97.30;;;;;;5065210;28;20469;-83
2023/03/22 08:41:48;;;;;;;2.77;2.57;;;12.90;97.30;;;;;;5068645;28;20433;-81
2023/03/22 08:44:13;;;;;;;3.33;2.67;;;13.00;97.30;;;;;;5070553;28;20662;-83
2023/03/22 08:46:39;;;;;;;3.60;3.10;;;13.20;97.30;;;;;;5076299;28;20175;-78
2023/03/22 08:49:04;;;;;;;4.33;2.43;;;13.40;97.30;;;;;;5076353;28;20198;-84
2023/03/22 08:51:30;;;;;;;4.90;2.73;;;13.40;97.30;;;;;;5063066;28;20180;-83
2023/03/22 08:53:59;;;;;;;3.33;2.93;;;13.50;97.30;;;;;;5073361;28;20201;-83
2023/03/22 08:56:26;;;;;;;5.47;3.87;;;13.60;97.30;;;;;;5072119;28;20183;-80
2023/03/22 08:58:51;;;;;;;2.90;1.57;;;13.80;97.30;;;;;;5077797;28;20438;-85
2023/03/22 09:01:19;;;;;;;6.80;3.00;;;13.90;97.30;;;;;;5068829;28;20995;-80
2023/03/22 09:03:45;;;;;;;7.50;2.23;;;14.00;97.30;;;;;;5071898;28;20592;-84
2023/03/22 09:06:12;;;;;;;3.23;3.03;;;14.00;97.30;;;;;;5066910;28;20433;-81
2023/03/22 09:08:37;;;;;;;3.90;2.90;;;14.00;97.30;;;;;;5075478;28;20449;-79
2023/03/22 09:11:03;;;;;;;3.00;2.70;;;14.10;97.30;;;;;;5073492;28;20426;-81
2023/03/22 09:13:32;;;;;;;2.07;1.97;;;14.30;97.30;;;;;;5059108;28;20427;-85
2023/03/22 09:15:58;;;;;;;2.50;2.33;;;14.40;97.30;;;;;;5066073;28;20424;-82
2023/03/22 09:18:24;;;;;;;3.83;1.90;;;14.50;97.30;;;;;;5064397;28;20544;-84
2023/03/22 09:20:51;;;;;;;2.23;2.10;;;14.60;97.00;;;;;;5070660;28;20183;-84
2023/03/22 09:23:16;;;;;;;5.27;2.73;;;14.70;95.90;;;;;;5064087;28;20475;-80
2023/03/22 09:25:43;;;;;;;1.43;1.37;;;14.80;95.90;;;;;;5067487;28;20426;-81
2023/03/22 09:28:09;;;;;;;1.90;1.83;;;14.90;96.50;;;;;;5060916;28;20218;-80
2023/03/22 09:30:35;;;;;;;5.70;2.40;;;15.00;96.20;;;;;;5072958;28;20766;-84
2023/03/22 09:33:01;;;;;;;5.53;2.00;;;15.10;95.80;;;;;;5094668;28;20179;-83
2023/03/22 09:35:26;;;;;;;2.90;2.37;;;15.10;95.60;;;;;;5085228;28;20426;-80
2023/03/22 09:37:53;;;;;;;3.33;1.63;;;15.20;95.30;;;;;;5066351;28;20222;-84
2023/03/22 09:40:20;;;;;;;1.87;1.70;;;15.40;94.70;;;;;;5066457;28;20183;-81
2023/03/22 09:42:49;;;;;;;2.37;2.17;;;15.40;94.70;;;;;;5075213;28;20951;-81
2023/03/22 09:45:36;;;;;;;3.70;2.00;;;15.50;94.20;;;;;;5066734;28;20967;-81
2023/03/22 09:48:10;;;;;;;3.00;1.63;;;15.60;94.50;;;;;;5065677;28;20496;-83
2023/03/22 09:50:42;;;;;;;11.50;3.20;;;15.70;93.00;;;;;;5058748;28;20499;-81
2023/03/22 09:53:12;;;;;;;4.33;2.90;;;15.80;93.80;;;;;;5091732;28;20421;-82
2023/03/22 09:55:59;;;;;;;1.60;1.50;;;15.90;93.70;;;;;;5067025;28;20444;-79
2023/03/22 09:58:34;;;;;;;2.80;2.60;;;15.80;92.60;;;;;;5066432;28;20970;-82
2023/03/22 10:01:05;;;;;;;4.67;3.90;;;15.70;93.00;;;;;;5068252;28;20416;-83
2023/03/22 10:04:05;;;;;;;8.53;3.93;;;15.50;93.20;;;;;;5070278;28;20461;-84
2023/03/22 10:06:31;;;;;;;1.60;1.50;;;15.30;93.70;;;;;;5070509;28;20413;-81
2023/03/22 10:09:05;;;;;;;4.70;2.90;;;15.40;94.60;;;;;;5065148;28;20790;-83
2023/03/22 10:11:50;;;;;;;2.33;1.73;;;15.60;94.60;;;;;;5065620;28;20424;-81
2023/03/22 10:14:25;;;;;;;3.20;2.87;;;15.70;93.80;;;;;;5095839;28;20897;-83
2023/03/22 10:16:53;;;;;;;1.67;1.57;;;15.80;93.50;;;;;;5078283;28;20493;-81
2023/03/22 10:19:27;;;;;;;4.23;2.33;;;15.90;93.70;;;;;;5072555;28;20453;-82
2023/03/22 10:21:57;;;;;;;4.27;2.00;;;16.00;93.30;;;;;;5080360;28;20409;-82
2023/03/22 10:24:28;;;;;;;4.53;2.07;;;16.20;92.70;;;;;;5097667;28;20465;-82
2023/03/22 10:26:54;;;;;;;3.63;1.93;;;16.20;92.10;;;;;;5080926;28;20426;-81
2023/03/22 10:29:22;;;;;;;1.93;1.73;;;16.10;92.80;;;;;;5065905;28;20442;-81
2023/03/22 10:31:48;;;;;;;1.80;1.70;;;15.90;91.40;;;;;;5071712;28;20426;-80
2023/03/22 10:34:26;;;;;;;1.67;1.57;;;15.80;91.60;;;;;;5072018;28;20454;-82
2023/03/22 10:36:54;;;;;;;1.20;1.10;;;16.00;91.60;;;;;;5064153;28;20206;-81
2023/03/22 10:39:30;;;;;;;2.70;1.87;;;16.20;92.20;;;;;;5068932;28;20469;-83
2023/03/22 10:42:02;;;;;;;3.80;2.23;;;16.30;91.70;;;;;;5070688;28;20418;-81
2023/03/22 10:44:30;;;;;;;1.80;1.80;;;16.30;90.80;;;;;;5069510;28;20480;-82
2023/03/22 10:47:00;;;;;;;2.23;1.93;;;16.20;90.80;;;;;;5084352;28;20509;-81
2023/03/22 10:49:37;;;;;;;11.67;2.33;;;16.20;90.20;;;;;;5079743;28;21003;-83
2023/03/22 10:52:11;;;;;;;2.30;2.10;;;16.20;90.70;;;;;;5080751;28;20430;-82
2023/03/22 10:54:36;;;;;;;1.43;1.10;;;16.40;90.50;;;;;;5079621;28;20424;-82
2023/03/22 10:57:02;;;;;;;2.70;1.90;;;16.50;89.80;;;;;;5078093;28;20838;-83
2023/03/22 10:59:46;;;;;;;3.53;2.83;;;16.40;89.40;;;;;;5074874;28;20266;-83
2023/03/22 11:02:25;;;;;;;2.60;1.83;;;16.20;89.60;;;;;;5068459;28;20375;-81
2023/03/22 11:04:59;;;;;;;1.90;1.90;;;16.30;89.80;;;;;;5083827;28;20484;-83
2023/03/22 11:07:33;;;;;;;5.07;1.57;;;16.30;90.00;;;;;;5085730;28;20417;-81
2023/03/22 11:10:07;;;;;;;1.20;1.10;;;16.40;89.80;;;;;;5079401;28;20485;-83
2023/03/22 11:12:35;;;;;;;3.63;2.23;;;16.40;89.60;;;;;;5077756;28;20503;-83
2023/03/22 11:15:01;;;;;;;3.90;1.83;;;16.40;89.20;;;;;;5084674;28;20418;-81
2023/03/22 11:17:27;;;;;;;2.27;2.10;;;16.40;89.20;;;;;;5080898;28;20489;-83
2023/03/22 11:19:56;;;;;;;4.70;3.50;;;16.70;89.80;;;;;;5068579;28;20453;-85
2023/03/22 11:22:22;;;;;;;1.27;1.17;;;16.90;88.50;;;;;;5073266;28;20188;-83
2023/03/22 11:24:49;;;;;;;2.53;2.00;;;17.20;88.80;;;;;;5060783;28;20470;-83
2023/03/22 11:27:30;;;;;;;1.47;1.30;;;17.40;88.20;;;;;;5072376;28;20632;-79
2023/03/22 11:30:20;;;;;;;2.27;2.00;;;17.30;87.50;;;;;;5078074;28;20472;-82
2023/03/22 11:32:46;;;;;;;1.50;1.40;;;17.20;87.60;;;;;;5071346;28;20516;-82
2023/03/22 11:35:20;;;;;;;2.40;1.63;;;17.10;87.90;;;;;;5094838;28;20453;-81
2023/03/22 11:37:48;;;;;;;1.20;1.10;;;16.90;87.10;;;;;;5075444;28;20276;-83
2023/03/22 11:40:29;;;;;;;3.00;1.30;;;16.60;88.10;;;;;;5095700;28;20934;-82
2023/03/22 11:43:11;;;;;;;6.60;1.90;;;16.40;88.20;;;;;;5075395;28;20548;-83
2023/03/22 11:45:41;;;;;;;2.70;1.73;;;16.30;88.40;;;;;;5072292;28;20445;-83
2023/03/22 11:48:13;;;;;;;1.30;1.20;;;16.30;87.40;;;;;;5073678;28;20987;-83
2023/03/22 11:50:44;;;;;;;3.47;1.97;;;16.30;86.80;;;;;;5077505;28;20923;-80
2023/03/22 11:53:20;;;;;;;1.00;0.90;;;16.40;85.80;;;;;;5062956;28;20457;-81
2023/03/22 11:55:48;;;;;;;1.40;1.00;;;16.70;85.10;;;;;;5076688;28;20421;-85
2023/03/22 11:58:23;;;;;;;1.03;0.93;;;17.20;85.20;;;;;;5069070;28;20438;-85
2023/03/22 12:00:51;;;;;;;1.13;1.03;;;17.40;84.30;;;;;;5069962;28;20417;-85
2023/03/22 12:03:21;;;;;;;1.27;1.17;;;17.30;83.30;;;;;;5067276;28;20445;-82
2023/03/22 12:05:49;;;;;;;1.20;1.13;;;17.20;83.90;;;;;;5076364;28;20452;-82
2023/03/22 12:08:36;;;;;;;1.57;1.13;;;17.10;84.10;;;;;;5066794;28;20442;-81
2023/03/22 12:11:13;;;;;;;1.37;1.27;;;17.10;84.00;;;;;;5065375;28;20414;-82
2023/03/22 12:13:50;;;;;;;1.20;1.10;;;17.20;84.00;;;;;;5062397;28;20418;-81
2023/03/22 12:16:21;;;;;;;3.70;1.83;;;17.50;84.40;;;;;;5069566;28;20713;-84
2023/03/22 12:19:24;;;;;;;6.30;1.60;;;17.80;82.60;;;;;;5064649;28;20442;-81
2023/03/22 12:21:51;;;;;;;3.40;3.20;;;18.00;82.70;;;;;;5049719;28;20624;-81
2023/03/22 12:24:27;;;;;;;1.10;1.00;;;18.20;82.00;;;;;;5074119;28;20461;-81
2023/03/22 12:26:56;;;;;;;1.20;1.10;;;18.00;81.40;;;;;;5075611;28;20453;-82
2023/03/22 12:29:23;;;;;;;1.77;1.67;;;17.90;81.50;;;;;;5095854;28;20445;-82
2023/03/22 12:32:07;;;;;;;2.57;1.90;;;17.70;81.80;;;;;;5065948;28;20418;-83
2023/03/22 12:34:41;;;;;;;2.03;1.20;;;17.70;82.80;;;;;;5069350;28;20426;-82
2023/03/22 12:37:10;;;;;;;1.00;0.90;;;17.60;82.20;;;;;;5066689;28;20457;-83
2023/03/22 12:39:50;;;;;;;1.20;1.10;;;17.60;82.00;;;;;;5072614;28;21014;-81
2023/03/22 12:42:24;;;;;;;1.20;1.10;;;17.70;82.20;;;;;;5075666;28;20488;-82
2023/03/22 12:44:53;;;;;;;0.70;0.70;;;18.10;81.50;;;;;;5071707;28;20468;-82
2023/03/22 12:47:31;;;;;;;1.40;1.30;;;18.40;80.40;;;;;;5068035;28;20438;-82
2023/03/22 12:50:06;;;;;;;1.10;1.00;;;18.70;79.70;;;;;;5071160;28;20425;-83
2023/03/22 12:52:41;;;;;;;1.33;1.17;;;19.00;79.90;;;;;;5069489;28;20425;-82
2023/03/22 12:55:09;;;;;;;1.20;1.10;;;19.10;79.40;;;;;;5071863;28;20440;-84
2023/03/22 12:57:39;;;;;;;1.10;1.00;;;;;;;;;;5070320;28;20437;-82
2023/03/22 13:00:14;;;;;;;1.20;1.10;;;19.20;79.90;;;;;;5067286;28;20425;-85
2023/03/22 13:02:46;;;;;;;2.03;1.90;;;19.30;78.60;;;;;;5076352;28;20485;-82
2023/03/22 13:05:12;;;;;;;1.30;1.20;;;19.30;78.90;;;;;;5069472;28;20414;-84
2023/03/22 13:07:46;;;;;;;1.13;1.03;;;19.40;78.90;;;;;;5066999;28;20434;-84